Time;durP1;ratioP1;P1;durP2;ratioP2;P2;SDS_P1;SDS_P2;PMS_P1;PMS_P2;Temp;Humidity;BMP_temperature;BMP_pressure;BME280_temperature;BME280_humidity;BME280_pressure;Samples;Min_cycle;Max_cycle;Signal;HPM_P1;HPM_P2
2022/06/21 00:00:25;;;;;;;2.92;2.60;;;;;;;24.28;78.12;99497.25;5114612;27;20205;-79
2022/06/21 00:02:55;;;;;;;3.58;2.88;;;;;;;24.03;78.24;99475.53;5114048;28;20194;-81
2022/06/21 00:05:28;;;;;;;3.28;2.95;;;;;;;24.16;78.85;99490.75;5113795;28;20205;-80
2022/06/21 00:07:56;;;;;;;3.40;2.95;;;;;;;24.37;78.92;99517.97;5113326;28;20217;-80
2022/06/21 00:10:23;;;;;;;3.95;2.55;;;;;;;23.99;78.56;99469.53;5113432;28;20204;-80
2022/06/21 00:12:50;;;;;;;3.95;3.03;;;;;;;24.19;77.45;99517.09;5114157;28;20661;-79
2022/06/21 00:15:17;;;;;;;2.63;2.42;;;;;;;24.32;76.84;99511.19;5094755;28;20201;-77
2022/06/21 00:17:47;;;;;;;8.68;3.00;;;;;;;23.96;76.34;99445.84;5114056;28;20193;-76
2022/06/21 00:20:20;;;;;;;2.90;2.70;;;;;;;24.18;76.26;99502.16;5114333;28;20676;-79
2022/06/21 00:22:49;;;;;;;2.75;2.55;;;;;;;24.32;75.54;99509.41;5113738;28;20287;-78
2022/06/21 00:25:19;;;;;;;3.00;2.78;;;;;;;24.30;74.08;99490.06;5113178;28;20247;-81
2022/06/21 00:27:46;;;;;;;2.60;2.50;;;;;;;24.11;75.19;99478.66;5098472;28;20214;-80
2022/06/21 00:30:15;;;;;;;3.17;2.97;;;;;;;24.32;74.39;99508.53;5113396;28;20562;-80
2022/06/21 00:32:42;;;;;;;3.28;3.08;;;;;;;24.02;77.85;99477.31;5113794;28;20204;-79
2022/06/21 00:35:12;;;;;;;3.10;2.90;;;;;;;24.23;75.87;99496.59;5092615;28;20202;-80
2022/06/21 00:37:39;;;;;;;3.08;2.55;;;;;;;23.99;74.81;99482.75;5113928;28;20213;-78
2022/06/21 00:40:18;;;;;;;2.83;2.65;;;;;;;24.28;72.76;99497.25;5113227;28;20672;-80
2022/06/21 00:42:47;;;;;;;2.72;2.53;;;;;;;24.12;72.20;99475.06;5113810;28;20204;-80
2022/06/21 00:45:22;;;;;;;3.30;2.70;;;;;;;24.22;70.22;99492.25;5113514;28;20189;-80
2022/06/21 00:47:53;;;;;;;2.92;2.55;;;;;;;24.26;69.60;99492.97;5112640;28;20222;-80
2022/06/21 00:50:24;;;;;;;2.60;2.50;;;;;;;24.34;68.17;99485.47;5113926;28;20185;-79
2022/06/21 00:52:57;;;;;;;3.22;2.88;;;;;;;24.40;68.07;99486.00;5113861;28;20236;-78
2022/06/21 00:55:35;;;;;;;2.72;2.55;;;;;;;24.48;67.18;99490.91;5114121;28;20204;-79
2022/06/21 00:58:02;;;;;;;2.75;2.40;;;;;;;24.31;67.42;99467.94;5113757;28;20676;-79
2022/06/21 01:00:33;;;;;;;2.42;2.33;;;;;;;24.50;66.96;99486.41;5113470;28;20198;-80
2022/06/21 01:03:03;;;;;;;2.63;2.45;;;;;;;24.49;66.50;99471.44;5114216;27;20190;-79
2022/06/21 01:05:33;;;;;;;3.08;2.47;;;;;;;24.62;66.30;99480.47;5113633;28;20193;-80
2022/06/21 01:08:01;;;;;;;2.65;2.53;;;;;;;24.53;67.48;99467.69;5113677;28;20222;-80
2022/06/21 01:10:31;;;;;;;6.40;2.47;;;;;;;24.48;66.87;99475.00;5113624;28;20198;-80
2022/06/21 01:13:02;;;;;;;2.90;2.70;;;;;;;24.46;66.73;99471.59;5077857;28;20189;-80
2022/06/21 01:15:33;;;;;;;2.70;2.50;;;;;;;24.50;66.73;99465.22;5113856;28;20201;-81
2022/06/21 01:18:02;;;;;;;6.05;2.53;;;;;;;24.46;66.57;99474.25;5113748;28;20197;-80
2022/06/21 01:20:32;;;;;;;2.90;2.70;;;;;;;24.51;65.98;99461.59;5113744;28;20202;-80
2022/06/21 01:23:10;;;;;;;3.45;3.15;;;;;;;24.48;65.83;99452.03;5113498;28;20189;-80
2022/06/21 01:25:44;;;;;;;3.35;3.05;;;;;;;24.42;66.17;99464.75;5112839;28;20197;-80
2022/06/21 01:28:13;;;;;;;2.80;2.55;;;;;;;24.32;66.24;99450.25;5113383;28;20707;-80
2022/06/21 01:30:44;;;;;;;4.28;2.78;;;;;;;24.41;65.93;99455.91;5112658;28;20220;-81
2022/06/21 01:33:13;;;;;;;4.85;2.80;;;;;;;24.51;65.96;99462.47;5113749;28;20197;-81
2022/06/21 01:35:45;;;;;;;2.70;2.50;;;;;;;24.47;65.17;99446.81;5113387;28;20198;-80
2022/06/21 01:38:16;;;;;;;3.05;2.88;;;;;;;24.40;65.79;99437.47;5093570;28;20204;-80
2022/06/21 01:40:47;;;;;;;2.70;2.50;;;;;;;23.99;65.60;99368.88;5112537;28;20672;-80
2022/06/21 01:43:18;;;;;;;2.80;2.60;;;;;;;24.41;65.52;99434.72;5113524;28;20277;-79
2022/06/21 01:45:48;;;;;;;2.92;2.72;;;;;;;24.39;65.86;99439.25;5111521;28;20569;-74
2022/06/21 01:48:22;;;;;;;2.53;2.40;;;;;;;24.46;64.80;99445.09;5111950;28;20225;-81
2022/06/21 01:50:54;;;;;;;2.45;2.35;;;;;;;24.51;64.11;99453.66;5113144;28;20201;-79
2022/06/21 01:53:24;;;;;;;2.75;2.53;;;;;;;24.34;64.43;99435.97;5113015;28;20229;-80
2022/06/21 01:55:55;;;;;;;2.70;2.50;;;;;;;24.46;64.24;99453.03;5111593;28;20193;-80
2022/06/21 01:58:27;;;;;;;4.22;2.53;;;;;;;24.54;63.84;99450.88;5112798;28;20197;-81
2022/06/21 02:00:58;;;;;;;2.90;2.60;;;;;;;24.28;64.00;99412.44;5116563;28;20201;-81
2022/06/21 02:03:31;;;;;;;2.55;2.45;;;;;;;24.57;63.93;99456.00;5099868;28;20198;-81
2022/06/21 02:06:01;;;;;;;2.45;2.33;;;;;;;24.54;64.14;99456.16;5115252;28;20204;-80
2022/06/21 02:08:36;;;;;;;2.88;2.60;;;;;;;24.32;64.42;99429.06;5116296;28;20232;-81
2022/06/21 02:11:07;;;;;;;3.20;2.90;;;;;;;24.44;64.44;99454.91;5116001;28;20197;-80
2022/06/21 02:13:41;;;;;;;3.85;3.00;;;;;;;24.36;65.11;99465.06;5117278;28;20645;-80
2022/06/21 02:16:13;;;;;;;4.47;2.75;;;;;;;24.26;65.78;99461.16;5116667;28;20204;-79
2022/06/21 02:18:44;;;;;;;2.47;2.38;;;;;;;24.15;66.11;99438.69;5116008;28;20205;-79
2022/06/21 02:21:17;;;;;;;2.97;2.63;;;;;;;24.25;65.64;99449.72;5116797;28;20212;-79
2022/06/21 02:23:54;;;;;;;3.03;2.85;;;;;;;24.32;66.37;99450.25;5116084;28;20185;-78
2022/06/21 02:26:23;;;;;;;2.47;2.28;;;;;;;24.12;66.96;99449.41;5116251;28;20193;-80
2022/06/21 02:28:52;;;;;;;2.97;2.78;;;;;;;23.79;68.00;99416.69;5116508;28;20291;-80
2022/06/21 02:31:20;;;;;;;2.85;2.38;;;;;;;23.90;68.69;99451.41;5116435;28;20198;-79
2022/06/21 02:33:49;;;;;;;3.55;2.22;;;;;;;24.03;68.45;99447.25;5081160;28;20197;-79
2022/06/21 02:36:20;;;;;;;2.90;2.70;;;;;;;23.80;68.74;99425.47;5116676;28;20197;-80
2022/06/21 02:38:50;;;;;;;2.70;2.60;;;;;;;24.12;68.98;99454.72;5116028;28;20197;-80
2022/06/21 02:41:20;;;;;;;3.17;2.85;;;;;;;24.11;71.23;99453.00;5115574;28;20198;-81
2022/06/21 02:43:54;;;;;;;3.58;2.58;;;;;;;24.09;73.34;99449.56;5115983;28;20194;-79
2022/06/21 02:46:26;;;;;;;4.07;3.35;;;;;;;23.88;76.57;99442.69;5116600;28;20193;-81
2022/06/21 02:48:58;;;;;;;4.03;3.33;;;;;;;23.86;74.87;99447.22;5081481;28;20304;-81
2022/06/21 02:51:31;;;;;;;3.55;2.30;;;;;;;23.79;74.87;99439.66;5095756;28;20229;-79
2022/06/21 02:54:03;;;;;;;3.50;3.20;;;;;;;23.88;75.30;99449.78;5102109;28;20221;-80
2022/06/21 02:56:36;;;;;;;10.15;3.00;;;;;;;23.91;78.04;99450.50;5096063;28;20284;-80
2022/06/21 02:59:05;;;;;;;6.35;2.85;;;;;;;23.95;77.71;99449.41;5116173;28;20193;-79
2022/06/21 03:01:36;;;;;;;3.40;3.20;;;;;;;23.87;82.02;99443.63;5115971;28;20197;-79
2022/06/21 03:04:05;;;;;;;5.13;3.13;;;;;;;24.00;78.58;99455.34;5115304;28;20201;-79
2022/06/21 03:06:33;;;;;;;5.90;3.05;;;;;;;23.89;77.94;99447.06;5116106;28;20554;-79
2022/06/21 03:09:06;;;;;;;3.20;2.97;;;;;;;23.84;84.91;99442.91;5116406;28;20228;-79
2022/06/21 03:11:37;;;;;;;3.47;3.28;;;;;;;24.02;85.49;99440.22;5115263;28;20229;-79
2022/06/21 03:14:09;;;;;;;8.38;3.15;;;;;;;24.42;86.00;99440.88;5115801;28;20202;-79
2022/06/21 03:16:36;;;;;;;8.68;3.90;;;;;;;24.73;89.78;99443.63;5115623;28;20193;-75
2022/06/21 03:19:07;;;;;;;6.00;2.90;;;;;;;25.40;83.37;99442.69;5114675;28;20204;-77
2022/06/21 03:21:36;;;;;;;2.92;2.78;;;;;;;25.94;74.07;99436.03;5115818;28;20202;-78
2022/06/21 03:24:07;;;;;;;4.45;2.80;;;;;;;26.62;74.95;99431.97;5104264;28;20202;-79
2022/06/21 03:26:35;;;;;;;5.20;3.03;;;;;;;27.05;70.24;99423.06;5094766;28;20584;-80
2022/06/21 03:29:02;;;;;;;4.30;2.78;;;;;;;27.59;66.36;99432.03;5094541;28;20233;-77
2022/06/21 03:31:35;;;;;;;6.90;3.55;;;;;;;27.54;65.79;99359.56;5059042;28;20202;-77
2022/06/21 03:34:04;;;;;;;3.33;3.03;;;;;;;28.43;65.19;99429.13;5075016;28;20210;-75
2022/06/21 03:36:32;;;;;;;3.97;3.15;;;;;;;28.56;64.93;99429.97;5107576;28;20217;-76
2022/06/21 03:39:03;;;;;;;4.38;3.22;;;;;;;28.55;65.26;99412.25;5078962;28;20284;-76
2022/06/21 03:41:45;;;;;;;8.45;3.47;;;;;;;29.05;64.00;99425.59;5115260;28;20201;-78
2022/06/21 03:44:20;;;;;;;4.82;3.33;;;;;;;29.63;59.26;99437.44;5114758;28;20212;-79
2022/06/21 03:46:53;;;;;;;7.40;4.03;;;;;;;30.18;55.82;99436.03;5114294;28;20664;-77
2022/06/21 03:49:31;;;;;;;5.60;3.53;;;;;;;30.56;56.13;99420.59;5113931;28;20707;-77
2022/06/21 03:52:00;;;;;;;6.55;3.17;;;;;;;30.81;55.59;99431.09;5113902;28;20205;-77
2022/06/21 03:54:42;;;;;;;5.47;3.65;;;;;;;31.21;53.92;99430.63;5114902;28;20189;-78
2022/06/21 03:57:17;;;;;;;4.07;3.00;;;;;;;31.05;49.81;99390.81;5114861;28;20211;-77
2022/06/21 03:59:50;;;;;;;6.78;3.45;;;;;;;31.73;50.19;99429.94;5113850;28;20660;-77
2022/06/21 04:02:23;;;;;;;6.25;2.92;;;;;;;31.92;48.33;99414.03;5113485;28;20189;-77
2022/06/21 04:04:54;;;;;;;5.38;3.10;;;;;;;32.22;47.65;99434.75;5113899;28;20197;-78
2022/06/21 04:07:28;;;;;;;3.58;3.28;;;;;;;31.90;46.96;99424.03;5114469;28;20204;-77
2022/06/21 04:10:01;;;;;;;4.85;2.78;;;;;;;32.31;47.21;99440.22;5113603;28;20233;-77
2022/06/21 04:12:35;;;;;;;3.75;2.85;;;;;;;32.79;45.73;99445.06;5094528;28;20193;-77
2022/06/21 04:15:09;;;;;;;4.10;2.67;;;;;;;32.61;44.04;99384.91;5113880;28;20684;-77
2022/06/21 04:17:44;;;;;;;9.40;3.00;;;;;;;33.29;44.54;99446.03;5114094;28;20633;-77
2022/06/21 04:20:18;;;;;;;3.90;2.60;;;;;;;33.23;41.47;99446.56;5112772;28;20659;-78
2022/06/21 04:22:49;;;;;;;3.33;2.40;;;;;;;33.45;41.20;99430.25;5077722;28;20728;-78
2022/06/21 04:25:24;;;;;;;5.90;2.80;;;;;;;33.47;39.22;99433.63;5114210;28;20228;-79
2022/06/21 04:27:57;;;;;;;3.22;2.45;;;;;;;32.75;39.54;99428.34;5114057;28;20193;-77
2022/06/21 04:30:32;;;;;;;2.97;2.65;;;;;;;32.74;38.45;99407.03;5113892;28;20235;-78
2022/06/21 04:33:07;;;;;;;3.25;2.50;;;;;;;32.81;38.39;99427.00;5113974;28;20196;-78
2022/06/21 04:35:38;;;;;;;4.25;2.33;;;;;;;32.64;38.52;99420.38;5046384;28;20210;-78
2022/06/21 04:38:10;;;;;;;2.30;2.20;;;;;;;33.00;37.92;99410.13;5077858;28;20193;-78
2022/06/21 04:40:48;;;;;;;2.83;2.13;;;;;;;33.82;36.93;99425.94;5112522;28;20195;-79
2022/06/21 04:43:28;;;;;;;2.55;2.45;;;;;;;34.51;36.08;99422.25;5114334;28;20253;-78
2022/06/21 04:45:59;;;;;;;2.80;2.70;;;;;;;33.88;37.00;99425.38;5100056;28;20672;-78
2022/06/21 04:48:35;;;;;;;2.92;2.40;;;;;;;33.78;36.06;99434.44;5113618;28;20660;-78
2022/06/21 04:51:08;;;;;;;5.40;2.50;;;;;;;33.08;36.94;99427.25;5111340;28;20199;-75
2022/06/21 04:53:44;;;;;;;2.67;2.40;;;;;;;33.16;37.87;99429.28;5101521;28;20217;-78
2022/06/21 04:56:18;;;;;;;2.47;2.38;;;;;;;33.42;36.81;99429.66;5100948;28;20208;-79
2022/06/21 04:58:49;;;;;;;4.03;2.33;;;;;;;32.91;37.93;99423.38;5095475;28;20205;-75
2022/06/21 05:01:32;;;;;;;5.07;2.45;;;;;;;32.84;37.46;99406.09;5093540;28;20641;-77
2022/06/21 05:04:04;;;;;;;3.75;2.80;;;;;;;32.45;38.24;99412.19;5100735;28;20228;-78
2022/06/21 05:06:31;;;;;;;2.17;2.08;;;;;;;32.77;38.13;99407.59;5096055;28;20679;-76
2022/06/21 05:08:59;;;;;;;2.28;2.17;;;;;;;32.93;37.58;99399.91;5105175;28;20240;-78
2022/06/21 05:11:26;;;;;;;97.93;67.63;;;;;;;33.56;36.58;99403.22;5109928;28;20196;-77
2022/06/21 05:13:56;;;;;;;96.50;53.47;;;;;;;33.54;36.66;99413.25;5111573;28;20200;-76
2022/06/21 05:16:29;;;;;;;3.10;2.40;;;;;;;33.72;35.18;99406.25;5098419;28;20206;-76
2022/06/21 05:18:59;;;;;;;2.30;2.03;;;;;;;33.79;35.45;99412.75;5106263;28;20201;-78
2022/06/21 05:21:34;;;;;;;3.00;2.80;;;;;;;34.71;34.16;99395.13;5094542;28;20224;-77
2022/06/21 05:24:02;;;;;;;2.70;2.50;;;;;;;34.72;33.47;99406.75;5108572;28;20200;-77
2022/06/21 05:26:34;;;;;;;2.50;2.33;;;;;;;34.53;33.59;99402.28;5092198;28;20213;-76
2022/06/21 05:29:09;;;;;;;3.47;2.50;;;;;;;34.07;35.21;99412.94;5094841;28;20249;-77
2022/06/21 05:31:41;;;;;;;2.38;2.28;;;;;;;33.59;35.73;99413.72;5097154;28;20192;-76
2022/06/21 05:34:16;;;;;;;2.60;2.50;;;;;;;32.68;36.67;99404.84;5111119;28;20211;-79
2022/06/21 05:36:57;;;;;;;2.50;2.40;;;;;;;33.53;35.62;99406.22;5104976;28;20211;-77
2022/06/21 05:39:30;;;;;;;4.57;2.40;;;;;;;33.19;35.59;99402.16;5095848;28;21673;-78
2022/06/21 05:42:01;;;;;;;2.58;2.33;;;;;;;33.22;36.31;99401.88;5110031;28;20228;-78
2022/06/21 05:44:34;;;;;;;2.42;2.33;;;;;;;33.47;36.05;99401.38;5093286;28;20257;-77
2022/06/21 05:47:07;;;;;;;2.70;2.50;;;;;;;32.82;36.15;99410.72;5074776;28;20752;-76
2022/06/21 05:49:36;;;;;;;2.72;2.35;;;;;;;31.67;38.09;99384.88;5102441;28;20696;-78
2022/06/21 05:52:11;;;;;;;6.07;2.30;;;;;;;31.53;38.66;99402.09;5091896;28;20209;-76
2022/06/21 05:54:43;;;;;;;2.78;2.55;;;;;;;30.93;39.16;99402.47;5107500;28;20203;-79
2022/06/21 05:57:16;;;;;;;2.70;2.50;;;;;;;30.99;39.38;99375.25;5112035;28;20220;-76
2022/06/21 05:59:43;;;;;;;2.53;2.33;;;;;;;31.24;39.63;99396.41;5100841;28;20239;-76
2022/06/21 06:02:16;;;;;;;2.75;2.40;;;;;;;30.85;40.52;99383.50;5091919;28;20198;-77
2022/06/21 06:04:48;;;;;;;2.70;2.50;;;;;;;30.08;41.75;99406.44;5098694;28;20251;-80
2022/06/21 06:07:28;;;;;;;3.28;3.00;;;;;;;29.54;42.75;99381.97;5076525;28;20193;-74
2022/06/21 06:09:57;;;;;;;4.28;3.97;;;;;;;29.33;43.44;99407.59;5111020;28;20216;-73
2022/06/21 06:12:29;;;;;;;2.67;2.47;;;;;;;29.26;43.34;99385.84;5111168;28;20196;-75
2022/06/21 06:15:00;;;;;;;2.90;2.78;;;;;;;29.25;43.97;99396.63;5111483;28;20906;-76
2022/06/21 06:17:32;;;;;;;3.42;3.22;;;;;;;29.46;43.50;99389.72;5076535;28;20550;-76
2022/06/21 06:20:05;;;;;;;2.78;2.63;;;;;;;29.62;44.22;99400.97;5111776;28;20644;-76
2022/06/21 06:22:39;;;;;;;2.95;2.75;;;;;;;29.69;43.18;99396.88;5112620;28;20197;-76
2022/06/21 06:25:17;;;;;;;10.65;3.03;;;;;;;29.60;44.47;99408.28;5111067;28;20256;-75
2022/06/21 06:27:53;;;;;;;2.75;2.58;;;;;;;29.59;45.26;99403.88;5111836;28;20203;-81
2022/06/21 06:30:23;;;;;;;4.93;3.10;;;;;;;29.32;45.72;99387.22;5111127;28;20243;-78
2022/06/21 06:32:58;;;;;;;3.00;2.80;;;;;;;29.40;46.15;99406.19;5102679;28;20202;-77
2022/06/21 06:35:26;;;;;;;3.00;2.80;;;;;;;29.22;47.33;99407.50;5095632;28;20204;-78
2022/06/21 06:37:55;;;;;;;2.90;2.67;;;;;;;29.21;46.92;99412.00;5098281;28;20208;-77
2022/06/21 06:40:25;;;;;;;3.05;2.85;;;;;;;29.28;47.99;99412.44;5103214;28;20205;-78
2022/06/21 06:42:58;;;;;;;4.57;2.70;;;;;;;29.29;47.47;99414.97;5091314;28;20595;-78
2022/06/21 06:45:29;;;;;;;4.82;2.25;;;;;;;29.25;48.36;99418.81;5094419;28;20198;-78
2022/06/21 06:48:03;;;;;;;2.70;2.53;;;;;;;28.42;48.46;99336.72;5104541;28;20213;-79
2022/06/21 06:50:35;;;;;;;2.67;2.47;;;;;;;28.75;49.25;99387.75;5084252;28;20241;-79
2022/06/21 06:53:08;;;;;;;2.38;2.28;;;;;;;29.30;49.89;99407.84;5105615;28;20233;-78
2022/06/21 06:55:40;;;;;;;2.92;2.42;;;;;;;29.18;48.78;99390.00;5115285;28;20229;-79
2022/06/21 06:58:12;;;;;;;2.60;2.40;;;;;;;29.33;48.44;99407.59;5114070;28;20188;-79
2022/06/21 07:00:43;;;;;;;2.80;2.55;;;;;;;29.48;49.02;99404.69;5102867;28;20209;-78
2022/06/21 07:03:14;;;;;;;3.60;2.90;;;;;;;29.35;49.09;99411.03;5102602;28;20657;-79
2022/06/21 07:05:47;;;;;;;7.90;2.78;;;;;;;29.49;50.46;99409.06;5104094;28;20208;-78
2022/06/21 07:08:25;;;;;;;4.43;3.10;;;;;;;29.67;49.28;99390.81;5082344;28;20211;-78
2022/06/21 07:10:56;;;;;;;6.50;2.92;;;;;;;29.72;47.82;99407.34;5117576;28;20229;-82
2022/06/21 07:13:23;;;;;;;2.90;2.70;;;;;;;29.66;48.02;99413.16;5103273;28;20215;-77
2022/06/21 07:15:52;;;;;;;2.63;2.42;;;;;;;29.82;47.49;99400.34;5116462;27;20208;-72
2022/06/21 07:18:28;;;;;;;7.70;2.67;;;;;;;30.27;47.71;99397.88;5114779;28;20208;-75
2022/06/21 07:20:56;;;;;;;2.90;2.70;;;;;;;30.23;46.80;99396.38;5116083;28;20664;-78
2022/06/21 07:23:28;;;;;;;2.55;2.45;;;;;;;30.35;47.35;99409.69;5116635;28;20205;-78
2022/06/21 07:26:00;;;;;;;7.60;2.42;;;;;;;30.16;47.18;99411.22;5115693;28;20193;-78
2022/06/21 07:28:33;;;;;;;2.42;2.30;;;;;;;30.16;47.66;99411.22;5115712;28;20204;-80
2022/06/21 07:31:04;;;;;;;5.57;2.50;;;;;;;30.18;47.64;99415.47;5086380;28;20672;-75
2022/06/21 07:33:37;;;;;;;5.47;2.47;;;;;;;30.30;46.38;99414.53;5109800;28;20205;-76
2022/06/21 07:36:08;;;;;;;2.28;2.17;;;;;;;30.45;45.40;99408.03;5113007;28;20208;-76
2022/06/21 07:38:43;;;;;;;2.35;2.20;;;;;;;30.56;46.16;99403.66;5105407;28;20254;-76
2022/06/21 07:41:16;;;;;;;3.13;2.83;;;;;;;30.52;45.11;99413.75;5104107;28;20262;-76
2022/06/21 07:43:47;;;;;;;2.42;2.22;;;;;;;30.14;45.16;99397.13;5095984;28;20584;-75
2022/06/21 07:46:19;;;;;;;3.15;2.85;;;;;;;30.34;45.60;99412.47;5100360;28;20197;-77
2022/06/21 07:48:51;;;;;;;2.40;2.20;;;;;;;30.11;45.36;99383.97;5111730;28;20216;-76
2022/06/21 07:51:21;;;;;;;2.58;2.38;;;;;;;30.49;45.46;99405.97;5101112;28;20245;-76
2022/06/21 07:53:53;;;;;;;2.50;2.40;;;;;;;30.89;44.98;99399.19;5077222;28;20231;-76
2022/06/21 07:56:24;;;;;;;2.42;2.28;;;;;;;30.97;44.07;99393.25;5113063;28;20216;-76
2022/06/21 07:58:58;;;;;;;2.50;2.30;;;;;;;30.77;44.07;99410.03;5113056;28;20209;-76
2022/06/21 08:07:13;;;;;;;5.40;2.40;;;;;;;31.22;43.61;99373.38;5010727;28;20209;-77
2022/06/21 08:09:46;;;;;;;4.72;2.30;;;;;;;31.32;43.96;99382.38;4994290;28;20282;-77
2022/06/21 08:12:15;;;;;;;3.05;2.50;;;;;;;31.38;42.86;99398.81;5023123;28;20726;-76
2022/06/21 08:14:42;;;;;;;3.17;2.58;;;;;;;31.47;43.36;99399.88;5029227;28;20204;-76
2022/06/21 08:17:19;;;;;;;4.78;2.50;;;;;;;31.79;43.88;99403.47;5026121;28;20204;-76
2022/06/21 08:19:52;;;;;;;2.50;2.40;;;;;;;31.64;42.80;99380.63;5010165;28;20222;-75
2022/06/21 08:22:23;;;;;;;4.05;2.40;;;;;;;31.54;43.20;99386.84;5019125;28;20214;-76
2022/06/21 08:24:56;;;;;;;4.25;2.30;;;;;;;31.71;42.07;99394.38;5028847;28;20203;-76
2022/06/21 08:27:34;;;;;;;2.85;2.30;;;;;;;31.61;42.79;99396.94;5014518;28;20215;-77
2022/06/21 08:30:07;;;;;;;2.78;2.03;;;;;;;31.48;42.94;99405.13;4992987;28;20215;-76
2022/06/21 08:32:36;;;;;;;2.45;2.30;;;;;;;31.60;42.81;99405.13;5026328;28;20229;-76
2022/06/21 08:35:12;;;;;;;3.45;2.33;;;;;;;31.93;42.45;99397.78;5022358;28;20204;-76
2022/06/21 08:37:46;;;;;;;3.00;2.70;;;;;;;31.88;42.98;99397.34;5012031;28;20207;-76
2022/06/21 08:40:34;;;;;;;2.70;2.55;;;;;;;31.87;43.20;99379.53;5024280;28;20206;-77
2022/06/21 08:43:29;;;;;;;2.47;2.28;;;;;;;32.16;42.21;99389.69;5028035;28;20211;-76
2022/06/21 08:46:19;;;;;;;6.60;2.72;;;;;;;32.17;43.60;99394.94;5112380;28;20201;-76
2022/06/21 08:49:28;;;;;;;2.35;2.25;;;;;;;32.02;43.74;99377.41;5029045;28;20212;-75
2022/06/21 08:52:16;;;;;;;7.85;2.83;;;;;;;32.21;42.15;99396.38;4943085;29;20234;-76
2022/06/21 08:54:52;;;;;;;2.60;2.40;;;;;;;31.90;41.60;99400.75;4942139;29;20198;-76
2022/06/21 08:57:29;;;;;;;2.88;2.47;;;;;;;31.79;41.77;99339.09;4944951;29;20206;-77
2022/06/21 09:00:05;;;;;;;2.67;2.47;;;;;;;32.31;42.47;99393.75;4941845;29;20210;-76
2022/06/21 09:02:44;;;;;;;2.80;2.58;;;;;;;32.32;43.98;99371.31;4932003;29;20211;-77
2022/06/21 09:05:25;;;;;;;3.10;2.78;;;;;;;32.33;42.29;99391.75;4902277;29;20203;-77
2022/06/21 09:08:12;;;;;;;2.88;2.78;;;;;;;32.63;42.55;99381.13;4931882;29;20203;-77
2022/06/21 09:10:55;;;;;;;2.63;2.40;;;;;;;32.52;42.18;99388.34;4931812;29;20233;-77
2022/06/21 09:13:38;;;;;;;2.90;2.50;;;;;;;32.57;42.19;99389.66;4918354;29;20203;-76
2022/06/21 09:16:12;;;;;;;2.97;2.50;;;;;;;32.32;40.83;99360.56;4931788;29;20269;-75
2022/06/21 09:18:53;;;;;;;3.25;2.95;;;;;;;32.45;41.38;99401.47;4931536;29;20203;-77
2022/06/21 09:21:27;;;;;;;3.03;2.72;;;;;;;32.71;41.13;99393.88;4931542;29;20221;-76
2022/06/21 09:24:00;;;;;;;10.50;2.50;;;;;;;32.49;41.25;99333.09;4931808;29;20202;-77
2022/06/21 09:26:38;;;;;;;2.63;2.20;;;;;;;32.94;40.30;99392.69;5035683;28;20590;-76
2022/06/21 09:29:20;;;;;;;2.63;2.30;;;;;;;32.96;40.10;99392.56;5090819;28;20195;-77
2022/06/21 09:32:03;;;;;;;2.55;2.35;;;;;;;32.73;39.84;99379.31;5109089;28;20216;-77
2022/06/21 09:34:43;;;;;;;4.55;2.60;;;;;;;32.83;40.31;99385.56;5111590;28;20204;-76
2022/06/21 09:37:23;;;;;;;3.15;3.00;;;;;;;33.05;40.19;99371.09;5096931;28;20192;-76
2022/06/21 09:39:58;;;;;;;2.58;2.42;;;;;;;32.95;40.57;99380.13;5097199;28;20197;-76
2022/06/21 09:42:32;;;;;;;5.55;2.55;;;;;;;32.84;40.22;99352.38;5091123;28;20193;-76
2022/06/21 09:45:07;;;;;;;4.25;2.35;;;;;;;32.90;40.56;99359.88;5105310;28;20235;-75
2022/06/21 09:47:45;;;;;;;3.10;2.60;;;;;;;33.08;40.60;99373.50;5111277;28;20203;-76
2022/06/21 09:50:22;;;;;;;2.72;2.45;;;;;;;32.96;40.16;99368.38;5075198;28;20207;-75
2022/06/21 09:52:59;;;;;;;2.50;2.40;;;;;;;33.18;40.78;99368.19;5111276;28;20727;-76
2022/06/21 09:55:35;;;;;;;9.00;3.10;;;;;;;33.37;39.68;99369.09;5110971;28;20200;-76
2022/06/21 09:58:11;;;;;;;6.72;3.00;;;;;;;33.52;39.10;99372.22;5111410;28;20196;-77
2022/06/21 10:00:43;;;;;;;5.53;3.53;;;;;;;33.49;39.55;99350.16;5097611;28;20212;-77
2022/06/21 10:03:28;;;;;;;3.00;2.67;;;;;;;33.27;39.41;99362.00;5097037;28;20273;-77
2022/06/21 10:06:00;;;;;;;7.80;3.50;;;;;;;33.01;40.75;99340.13;5074235;28;20668;-77
2022/06/21 10:08:42;;;;;;;2.97;2.78;;;;;;;33.22;39.86;99359.72;5090691;28;20669;-76
2022/06/21 10:11:15;;;;;;;3.33;3.00;;;;;;;33.20;39.74;99352.78;5104603;28;20224;-76
2022/06/21 10:14:17;;;;;;;3.60;2.97;;;;;;;33.16;39.58;99344.16;5099595;28;20227;-76
2022/06/21 10:17:02;;;;;;;5.07;3.60;;;;;;;33.20;39.54;99323.22;5096303;28;20203;-77
2022/06/21 10:19:41;;;;;;;7.10;3.70;;;;;;;33.75;39.67;99333.34;5110824;28;20208;-71
2022/06/21 10:22:30;;;;;;;3.92;3.47;;;;;;;33.77;39.87;99320.63;5102896;28;20208;-73
2022/06/21 10:25:19;;;;;;;4.00;3.58;;;;;;;33.93;40.05;99324.56;5081845;28;20200;-72
2022/06/21 10:28:03;;;;;;;4.10;3.80;;;;;;;33.77;40.26;99317.06;5114436;28;20205;-72
2022/06/21 10:31:02;;;;;;;5.30;3.97;;;;;;;34.07;40.52;99289.13;5114511;28;20203;-72
2022/06/21 10:34:07;;;;;;;10.63;4.55;;;;;;;34.15;40.72;99308.13;5095341;28;20676;-72
2022/06/21 10:36:49;;;;;;;8.68;3.92;;;;;;;33.94;39.53;99307.41;5114666;28;20201;-73
2022/06/21 10:39:41;;;;;;;7.45;4.40;;;;;;;34.08;40.16;99294.34;5114876;28;20185;-73
2022/06/21 10:45:28;;;;;;;4.63;3.88;;;;;;;34.02;39.61;99289.56;5114570;28;20195;-73
2022/06/21 10:48:16;;;;;;;6.97;3.92;;;;;;;34.21;40.33;99296.78;5114277;28;20207;-72
2022/06/21 10:50:55;;;;;;;4.65;4.10;;;;;;;34.28;39.54;99285.25;5078040;28;20232;-72
2022/06/21 10:53:42;;;;;;;4.50;4.10;;;;;;;34.28;39.45;99293.34;5114625;28;20224;-72
2022/06/21 10:59:21;;;;;;;5.85;3.67;;;;;;;34.28;37.68;99305.97;5114325;28;20726;-75
2022/06/21 11:01:58;;;;;;;4.72;4.32;;;;;;;34.16;38.32;99294.53;5114249;28;20205;-75
2022/06/21 11:04:54;;;;;;;5.30;3.95;;;;;;;34.16;40.11;99291.84;5114187;28;20212;-77
2022/06/21 11:07:32;;;;;;;4.10;3.70;;;;;;;34.28;39.09;99295.19;5114225;28;20665;-78
2022/06/21 11:10:06;;;;;;;4.80;4.10;;;;;;;34.24;38.93;99270.41;5113909;28;20201;-77
2022/06/21 11:13:04;;;;;;;6.47;4.10;;;;;;;34.68;39.45;99303.84;5113749;28;20213;-78
2022/06/21 11:15:44;;;;;;;8.85;4.03;;;;;;;34.10;39.59;99281.63;5113812;28;20204;-75
2022/06/21 11:18:26;;;;;;;4.60;3.80;;;;;;;34.35;39.17;99285.53;5080083;28;20188;-76
2022/06/21 11:21:10;;;;;;;10.35;3.85;;;;;;;34.53;39.45;99301.78;5113886;28;20673;-77
2022/06/21 11:23:52;;;;;;;6.70;4.10;;;;;;;34.33;39.01;99295.59;5113548;28;20193;-75
2022/06/21 11:26:27;;;;;;;6.10;3.88;;;;;;;34.45;39.56;99286.34;5094379;28;20193;-75
2022/06/21 11:29:03;;;;;;;10.80;4.00;;;;;;;34.43;40.05;99287.47;5113713;28;20208;-75
2022/06/21 11:31:40;;;;;;;6.70;4.40;;;;;;;34.22;40.14;99266.16;5044880;28;20277;-76
2022/06/21 11:34:18;;;;;;;5.13;3.97;;;;;;;34.42;40.66;99275.88;5113633;28;20196;-76
2022/06/21 11:36:54;;;;;;;5.00;4.25;;;;;;;34.56;40.81;99288.88;5113148;28;20200;-75
2022/06/21 11:39:34;;;;;;;4.47;3.67;;;;;;;34.68;40.95;99268.81;5113508;28;20584;-76
2022/06/21 11:42:19;;;;;;;7.68;4.10;;;;;;;34.42;39.88;99265.13;5113493;28;20196;-75
2022/06/21 11:45:07;;;;;;;15.55;4.78;;;;;;;34.68;40.54;99282.28;5113164;28;20676;-75
2022/06/21 11:48:06;;;;;;;5.72;4.18;;;;;;;34.54;40.78;99263.91;5113438;28;20201;-76
2022/06/21 11:50:43;;;;;;;7.95;4.20;;;;;;;34.53;40.66;99245.22;5027787;28;20196;-76
2022/06/21 11:53:35;;;;;;;9.43;4.20;;;;;;;35.07;40.67;99268.63;5029766;28;20231;-77
2022/06/21 11:56:09;;;;;;;5.47;3.83;;;;;;;34.87;39.76;99245.47;5030224;28;20199;-77
2022/06/21 11:58:43;;;;;;;9.68;4.38;;;;;;;35.40;40.46;99246.38;5030224;28;20191;-77
2022/06/21 12:01:15;;;;;;;6.70;4.00;;;;;;;35.46;39.48;99272.72;4996998;28;20215;-76
2022/06/21 12:03:57;;;;;;;10.60;3.83;;;;;;;35.42;38.97;99257.88;5030008;28;20200;-76
2022/06/21 12:06:31;;;;;;;4.55;4.15;;;;;;;35.70;38.49;99243.31;5030169;28;20213;-76
2022/06/21 12:09:05;;;;;;;6.07;4.72;;;;;;;35.87;37.86;99259.59;5030168;28;20228;-77
2022/06/21 12:11:44;;;;;;;7.15;4.38;;;;;;;35.77;38.29;99263.25;5030810;28;20230;-77
2022/06/21 12:14:25;;;;;;;9.45;4.45;;;;;;;35.57;37.81;99258.16;4997480;28;20196;-77
2022/06/21 12:16:57;;;;;;;8.30;4.05;;;;;;;35.43;38.18;99251.47;5030911;28;20257;-78
2022/06/21 12:19:30;;;;;;;9.27;4.93;;;;;;;35.60;37.03;99258.72;5031028;28;20250;-77